Metar z pełnej godziny Komunikat METAR ze strony awiacja.imgw.pl Metar G00 EPLB METAR EPLB 062300Z 19005KT 170V230 5000 BR OVC003 01/00 Q1010 =